Time;durP1;ratioP1;P1;durP2;ratioP2;P2;SDS_P1;SDS_P2;PMS_P1;PMS_P2;Temp;Humidity;BMP_temperature;BMP_pressure;BME280_temperature;BME280_humidity;BME280_pressure;Samples;Min_cycle;Max_cycle;Signal;HPM_P1;HPM_P2
2022/11/04 00:00:07;;;;;;;3.67;3.35;;;;;;;10.48;100.00;99396.03;5072548;28;20037;-77
2022/11/04 00:02:34;;;;;;;4.60;3.17;;;;;;;10.51;100.00;99398.56;5066787;28;20067;-79
2022/11/04 00:05:00;;;;;;;4.75;2.95;;;;;;;10.53;100.00;99404.59;5082774;28;20359;-78
2022/11/04 00:10:11;;;;;;;3.70;2.88;;;;;;;10.57;100.00;99382.69;5050239;28;20028;-78
2022/11/04 00:12:36;;;;;;;3.05;2.42;;;;;;;10.57;100.00;99374.81;5046045;28;20055;-79
2022/11/04 00:17:44;;;;;;;5.70;2.85;;;;;;;10.59;100.00;99387.88;5066728;28;20147;-79
2022/11/04 00:33:51;;;;;;;4.32;3.53;;;;;;;10.71;100.00;99400.56;5064077;28;20049;-79
2022/11/04 00:36:18;;;;;;;3.35;2.78;;;;;;;10.72;100.00;99406.69;5056607;28;20056;-78
2022/11/04 00:38:45;;;;;;;5.40;3.60;;;;;;;10.72;100.00;99410.16;5065880;28;20037;-78
2022/11/04 00:41:25;;;;;;;2.45;2.25;;;;;;;10.74;100.00;99413.59;5067769;28;20079;-81
2022/11/04 00:44:00;;;;;;;2.78;2.45;;;;;;;10.75;100.00;99409.19;5062442;28;20103;-79
2022/11/04 00:46:29;;;;;;;4.28;3.85;;;;;;;10.75;100.00;99414.44;5064365;28;20513;-81
2022/11/04 00:48:57;;;;;;;4.20;3.08;;;;;;;10.79;100.00;99417.81;5080970;28;20563;-78
2022/11/04 00:51:23;;;;;;;7.05;2.88;;;;;;;10.79;100.00;99423.06;5080609;28;20147;-77
2022/11/04 00:53:52;;;;;;;7.10;3.40;;;;;;;10.78;100.00;99424.84;5072126;28;20060;-78
2022/11/04 00:56:19;;;;;;;6.13;3.38;;;;;;;10.77;100.00;99420.50;5066784;28;20044;-81
2022/11/04 00:58:45;;;;;;;3.22;2.85;;;;;;;10.79;100.00;99429.13;5059171;28;20033;-78
2022/11/04 01:01:16;;;;;;;3.65;3.35;;;;;;;10.77;100.00;99436.19;5061062;28;20052;-83
2022/11/04 01:03:44;;;;;;;8.38;4.32;;;;;;;10.71;100.00;99439.84;5060088;28;20075;-78
2022/11/04 01:06:10;;;;;;;3.92;3.15;;;;;;;10.58;100.00;99439.31;5065492;28;20044;-90
2022/11/04 01:08:37;;;;;;;5.97;3.33;;;;;;;10.49;100.00;99430.88;5062885;28;20044;-82
2022/11/04 01:11:07;;;;;;;4.53;3.28;;;;;;;10.40;100.00;99435.50;5063486;28;20044;-78
2022/11/04 01:13:34;;;;;;;6.43;3.70;;;;;;;10.34;100.00;99438.25;5026571;28;20045;-79
2022/11/04 01:16:08;;;;;;;4.85;2.97;;;;;;;10.30;100.00;99433.13;5071665;28;20049;-82
2022/11/04 01:18:34;;;;;;;;;;;;;;;10.26;100.00;99434.97;5053263;28;20041;-79
2022/11/04 01:21:03;;;;;;;5.95;2.95;;;;;;;10.23;100.00;99440.28;5059332;28;20517;-81
2022/11/04 01:23:29;;;;;;;5.65;3.67;;;;;;;10.22;100.00;99433.31;5054086;28;20077;-78
2022/11/04 01:25:56;;;;;;;4.97;3.95;;;;;;;10.18;100.00;99429.97;5062031;28;20131;-78
2022/11/04 01:28:23;;;;;;;4.78;4.05;;;;;;;10.20;100.00;99438.59;5065907;28;20055;-77
2022/11/04 01:30:49;;;;;;;4.47;3.50;;;;;;;10.20;100.00;99440.38;5051771;28;20053;-81
2022/11/04 01:33:16;;;;;;;4.45;3.28;;;;;;;10.17;100.00;99437.81;5060861;28;20049;-81
2022/11/04 01:35:43;;;;;;;3.33;3.03;;;;;;;10.16;100.00;99441.38;5048524;28;20085;-78
2022/11/04 01:38:09;;;;;;;3.25;2.95;;;;;;;10.16;100.00;99429.13;5059519;28;20071;-79
2022/11/04 01:40:38;;;;;;;3.78;3.05;;;;;;;10.16;100.00;99429.13;5045971;28;20048;-82
2022/11/04 01:43:16;;;;;;;3.15;2.92;;;;;;;10.17;100.00;99429.97;5066374;28;20044;-77
2022/11/04 01:45:48;;;;;;;5.53;3.92;;;;;;;10.16;100.00;99423.91;5057214;28;20155;-78
2022/11/04 01:48:31;;;;;;;3.30;3.00;;;;;;;10.17;100.00;99433.47;5064424;28;20048;-81
2022/11/04 01:51:00;;;;;;;4.25;3.50;;;;;;;10.19;100.00;99456.97;5066220;28;20893;-77
2022/11/04 01:53:32;;;;;;;6.38;4.32;;;;;;;10.20;100.00;99448.22;5048217;28;20115;-79
2022/11/04 01:56:03;;;;;;;4.25;3.78;;;;;;;10.21;100.00;99460.41;5048249;28;20059;-79
2022/11/04 01:58:36;;;;;;;7.97;3.22;;;;;;;10.21;100.00;99452.56;5053147;28;20091;-77
2022/11/04 02:01:02;;;;;;;2.87;2.50;;;;;;;10.21;100.00;99456.03;5067265;28;20040;-77
2022/11/04 02:03:38;;;;;;;4.25;2.90;;;;;;;10.21;100.00;99440.31;5076097;28;20298;-79
2022/11/04 02:06:06;;;;;;;3.17;2.70;;;;;;;10.20;100.00;99443.00;5054065;28;20037;-80
2022/11/04 02:08:33;;;;;;;5.13;3.40;;;;;;;10.19;100.00;99446.50;5069997;28;20410;-77
2022/11/04 02:11:03;;;;;;;3.53;3.22;;;;;;;10.20;100.00;99438.59;5069792;28;20045;-78
2022/11/04 02:13:34;;;;;;;4.20;2.38;;;;;;;10.19;100.00;99433.41;5061711;28;20047;-78
2022/11/04 02:16:24;;;;;;;3.70;2.95;;;;;;;10.20;100.00;99440.38;5052719;28;20085;-81
2022/11/04 02:19:31;;;;;;;4.45;3.15;;;;;;;10.25;100.00;99448.97;5063460;28;20044;-82
2022/11/04 02:22:25;;;;;;;3.08;2.67;;;;;;;10.26;100.00;99442.84;5055442;28;20051;-78
2022/11/04 02:25:50;;;;;;;2.95;2.65;;;;;;;10.26;100.00;99432.38;5061249;28;20040;-79
2022/11/04 02:28:41;;;;;;;3.00;2.60;;;;;;;10.24;100.00;99432.38;5064969;28;20765;-80
2022/11/04 02:31:47;;;;;;;3.38;3.05;;;;;;;10.22;100.00;99426.34;5065184;28;20055;-78
2022/11/04 02:34:34;;;;;;;3.08;2.42;;;;;;;10.22;100.00;99422.88;5063499;28;20064;-78
2022/11/04 02:37:08;;;;;;;4.55;2.22;;;;;;;10.19;100.00;99426.41;5054033;28;20049;-77
2022/11/04 02:40:00;;;;;;;2.45;2.35;;;;;;;10.19;100.00;99431.66;5060575;28;20048;-79
2022/11/04 02:42:48;;;;;;;4.40;2.60;;;;;;;10.19;100.00;99447.34;5057179;28;20041;-82
2022/11/04 02:45:21;;;;;;;2.95;2.00;;;;;;;10.24;100.00;99450.69;5061557;28;20090;-80
2022/11/04 02:48:12;;;;;;;2.90;2.53;;;;;;;10.30;100.00;99439.22;5061180;28;20049;-78
2022/11/04 02:51:03;;;;;;;3.42;2.28;;;;;;;10.35;100.00;99442.59;5057479;28;20043;-78
2022/11/04 02:53:38;;;;;;;2.97;2.47;;;;;;;10.39;100.00;99440.75;5060437;28;20041;-79
2022/11/04 02:56:06;;;;;;;1.75;1.55;;;;;;;10.36;100.00;99433.00;5049847;28;20063;-79
2022/11/04 02:59:03;;;;;;;2.22;1.63;;;;;;;10.35;100.00;99447.84;5052979;28;20055;-83
2022/11/04 03:01:35;;;;;;;2.45;2.05;;;;;;;10.35;100.00;99445.22;5074469;28;20041;-78
2022/11/04 03:04:11;;;;;;;1.92;1.65;;;;;;;10.37;100.00;99445.19;5055632;28;20095;-80
2022/11/04 03:06:39;;;;;;;2.88;1.95;;;;;;;10.35;100.00;99450.47;5062799;28;20047;-78
2022/11/04 03:09:08;;;;;;;2.15;1.95;;;;;;;10.38;100.00;99449.50;5069654;28;20033;-80
2022/11/04 03:11:36;;;;;;;2.00;1.83;;;;;;;10.36;100.00;99456.53;5050904;28;20052;-79
2022/11/04 03:14:09;;;;;;;1.92;1.65;;;;;;;10.41;100.00;99458.13;5066006;28;20033;-78
2022/11/04 03:16:46;;;;;;;0.90;0.90;;;;;;;10.42;100.00;99451.16;5044475;28;20048;-78
2022/11/04 03:19:24;;;;;;;1.25;1.00;;;;;;;10.54;100.00;99465.63;5064290;28;20094;-80
2022/11/04 03:21:57;;;;;;;1.00;0.50;;;;;;;10.50;100.00;99474.47;5061333;28;20048;-80
2022/11/04 03:24:24;;;;;;;;;;;;;;;10.47;100.00;99483.28;5066990;28;20041;-80
2022/11/04 03:27:57;;;;;;;3.00;0.85;;;;;;;10.45;100.00;99486.81;5049610;28;19967;-79
2022/11/04 03:30:24;;;;;;;2.80;0.50;;;;;;;10.37;100.00;99495.72;5060018;28;20048;-79
2022/11/04 03:33:08;;;;;;;0.57;0.57;;;;;;;10.33;100.00;99504.53;5049887;28;20139;-78
2022/11/04 03:35:34;;;;;;;0.73;0.40;;;;;;;10.20;100.00;99513.59;5056869;28;20063;-79
2022/11/04 03:38:02;;;;;;;0.40;0.40;;;;;;;10.16;100.00;99515.44;5073465;28;20041;-78
2022/11/04 03:40:28;;;;;;;1.92;0.40;;;;;;;10.12;100.00;99516.41;5065520;28;20051;-78
2022/11/04 03:43:09;;;;;;;1.02;0.50;;;;;;;10.14;100.00;99532.06;5069547;28;20044;-84
2022/11/04 03:45:36;;;;;;;0.55;0.55;;;;;;;10.09;100.00;99529.56;5070564;28;20095;-77
2022/11/04 03:48:03;;;;;;;6.13;0.55;;;;;;;10.10;100.00;99533.88;5084687;28;20378;-79
2022/11/04 03:50:34;;;;;;;1.50;0.70;;;;;;;10.07;100.00;99549.66;5059315;28;20028;-76
2022/11/04 03:53:01;;;;;;;1.65;0.70;;;;;;;10.01;100.00;99555.91;5065244;28;20073;-77
2022/11/04 03:56:06;;;;;;;2.42;0.63;;;;;;;9.94;100.00;99564.78;5070299;28;20040;-81
2022/11/04 03:58:48;;;;;;;0.60;0.60;;;;;;;10.03;100.00;99564.56;5054906;28;20052;-78
2022/11/04 04:01:47;;;;;;;1.65;0.88;;;;;;;10.01;100.00;99570.72;5065360;28;20425;-77
2022/11/04 04:04:29;;;;;;;1.45;0.77;;;;;;;9.95;100.00;99574.34;5056704;28;20411;-78
2022/11/04 04:07:05;;;;;;;1.40;1.30;;;;;;;9.97;100.00;99590.00;5064948;28;20063;-78
2022/11/04 04:09:41;;;;;;;1.20;1.20;;;;;;;9.99;100.00;99585.59;5058277;28;20052;-80
2022/11/04 04:12:25;;;;;;;2.78;1.92;;;;;;;10.00;100.00;99574.22;5066232;28;20064;-78
2022/11/04 04:14:59;;;;;;;2.00;1.77;;;;;;;10.02;100.00;99582.91;5061596;28;20056;-83
2022/11/04 04:17:36;;;;;;;;;;;;;;;10.02;100.00;99590.75;5065387;28;20044;-76
2022/11/04 04:20:18;;;;;;;1.83;1.73;;;;;;;9.96;100.00;99585.66;5065204;28;19920;-80
2022/11/04 04:22:58;;;;;;;2.33;2.13;;;;;;;9.97;100.00;99584.75;5065112;28;20403;-79
2022/11/04 04:28:16;;;;;;;3.75;3.00;;;;;;;9.91;100.00;99598.84;5054820;28;20039;-77
2022/11/04 04:30:44;;;;;;;2.80;2.60;;;;;;;9.99;99.47;99596.06;5054072;28;20049;-77
2022/11/04 04:33:17;;;;;;;2.60;2.40;;;;;;;9.97;100.00;99605.69;5050066;28;20053;-78
2022/11/04 04:35:50;;;;;;;3.03;2.83;;;;;;;9.94;100.00;99617.06;5062390;28;20036;-78
2022/11/04 04:47:02;;;;;;;3.70;3.20;;;;;;;9.84;100.00;99619.03;5062267;28;20467;-82
2022/11/04 04:49:33;;;;;;;3.95;3.63;;;;;;;9.81;100.00;99621.72;5069718;28;20043;-78
2022/11/04 04:52:03;;;;;;;3.42;3.13;;;;;;;9.76;100.00;99613.09;5074418;28;20041;-78
2022/11/04 04:54:29;;;;;;;3.92;3.60;;;;;;;9.74;100.00;99612.31;5070620;28;20040;-76
2022/11/04 04:56:56;;;;;;;3.95;3.25;;;;;;;9.71;100.00;99602.78;5067425;28;20029;-76
2022/11/04 04:59:22;;;;;;;3.85;3.55;;;;;;;9.68;100.00;99600.22;5067602;28;20072;-83
2022/11/04 05:01:49;;;;;;;3.88;3.67;;;;;;;9.62;100.00;99604.72;5040368;28;20041;-76
2022/11/04 05:04:16;;;;;;;4.18;3.88;;;;;;;9.50;100.00;99603.22;5066868;28;20056;-80
2022/11/04 05:06:42;;;;;;;4.25;3.65;;;;;;;9.47;100.00;99605.91;5070213;28;20048;-78
2022/11/04 05:09:09;;;;;;;4.03;3.63;;;;;;;9.46;100.00;99614.66;5064132;28;20040;-78
2022/11/04 05:11:35;;;;;;;3.70;3.50;;;;;;;9.49;100.00;99625.03;5064217;28;20072;-78
2022/11/04 05:14:01;;;;;;;4.25;3.85;;;;;;;9.41;100.00;99627.78;5060340;28;20155;-78
2022/11/04 05:16:29;;;;;;;4.28;3.97;;;;;;;9.39;100.00;99638.28;5063169;28;20056;-80
2022/11/04 05:18:55;;;;;;;5.78;4.22;;;;;;;9.37;100.00;99632.25;5060435;28;20132;-79
2022/11/04 05:21:21;;;;;;;4.60;4.20;;;;;;;9.42;100.00;99638.19;5049915;28;20056;-79
2022/11/04 05:23:48;;;;;;;4.63;4.22;;;;;;;9.32;100.00;99641.03;5045941;28;20048;-78
2022/11/04 05:26:15;;;;;;;5.03;4.60;;;;;;;9.20;100.00;99648.22;5049229;28;20048;-77
2022/11/04 05:28:41;;;;;;;6.20;4.63;;;;;;;9.15;100.00;99650.09;5059441;28;20040;-79
2022/11/04 05:31:08;;;;;;;4.45;4.15;;;;;;;9.12;100.00;99665.78;5048426;28;20131;-79
2022/11/04 05:33:35;;;;;;;4.50;4.20;;;;;;;9.06;100.00;99674.59;5061506;28;20040;-76
2022/11/04 05:36:15;;;;;;;5.00;4.60;;;;;;;9.04;100.00;99675.53;5064111;28;20047;-83
2022/11/04 05:38:42;;;;;;;7.00;5.32;;;;;;;9.00;100.00;99669.50;5059040;28;20051;-80
2022/11/04 05:41:24;;;;;;;5.22;4.78;;;;;;;8.94;100.00;99669.59;5061763;28;20045;-81
2022/11/04 05:43:52;;;;;;;5.28;4.88;;;;;;;8.85;100.00;99649.78;5078302;28;20033;-79
2022/11/04 05:46:20;;;;;;;10.13;5.55;;;;;;;8.89;100.00;99672.31;5080911;28;20048;-79
2022/11/04 05:48:47;;;;;;;5.32;4.93;;;;;;;8.92;100.00;99671.41;5075487;28;20055;-78
2022/11/04 05:51:20;;;;;;;5.30;4.90;;;;;;;8.86;100.00;99685.41;5067636;28;20049;-77
2022/11/04 05:53:46;;;;;;;6.05;5.45;;;;;;;8.94;100.00;99683.53;5065064;28;20044;-76
2022/11/04 05:56:13;;;;;;;5.40;5.00;;;;;;;8.93;100.00;99679.19;5083801;28;20124;-79
2022/11/04 05:58:39;;;;;;;6.07;5.60;;;;;;;8.93;100.00;99683.56;5068578;28;20452;-76
2022/11/04 06:01:33;;;;;;;5.72;5.22;;;;;;;8.91;100.00;99691.38;5058203;28;20047;-77
2022/11/04 06:04:01;;;;;;;6.70;6.00;;;;;;;8.84;100.00;99683.69;5082517;28;20055;-78
2022/11/04 06:06:32;;;;;;;6.07;5.47;;;;;;;8.87;100.00;99699.31;5049073;28;20041;-80
2022/11/04 06:09:00;;;;;;;5.30;4.90;;;;;;;9.00;100.00;99705.19;5074546;28;20067;-80
2022/11/04 06:11:29;;;;;;;8.55;5.43;;;;;;;9.03;100.00;99702.50;5077709;28;20115;-86
2022/11/04 06:13:57;;;;;;;6.32;5.32;;;;;;;9.05;100.00;99706.81;5064054;28;20194;-79
2022/11/04 06:16:24;;;;;;;6.07;4.78;;;;;;;9.04;100.00;99704.25;5064422;28;20056;-80
2022/11/04 06:18:52;;;;;;;5.53;5.00;;;;;;;9.00;100.00;99706.03;5066044;28;20064;-79
2022/11/04 06:21:36;;;;;;;5.97;5.45;;;;;;;8.90;100.00;99712.31;5073159;28;20052;-77
2022/11/04 06:24:03;;;;;;;5.45;4.63;;;;;;;8.85;100.00;99725.44;5050954;28;20078;-77
2022/11/04 06:26:30;;;;;;;4.72;4.43;;;;;;;8.73;100.00;99739.53;5062662;28;20044;-81
2022/11/04 06:28:57;;;;;;;7.85;5.10;;;;;;;8.64;100.00;99747.50;5069210;28;20379;-80
2022/11/04 06:31:24;;;;;;;5.32;4.97;;;;;;;8.61;100.00;99752.78;5069710;28;20812;-81
2022/11/04 06:33:50;;;;;;;6.55;5.85;;;;;;;8.66;100.00;99758.81;5070598;28;20105;-80
2022/11/04 06:36:17;;;;;;;7.40;5.03;;;;;;;8.75;100.00;99766.47;5064916;28;20052;-83
2022/11/04 06:38:43;;;;;;;5.82;5.03;;;;;;;8.89;100.00;99765.38;5064729;28;20052;-84
2022/11/04 06:41:16;;;;;;;6.53;5.07;;;;;;;9.03;100.00;99775.59;5067434;28;20045;-87
2022/11/04 06:43:43;;;;;;;5.03;4.63;;;;;;;9.14;100.00;99783.25;5071644;28;20036;-81
2022/11/04 06:46:38;;;;;;;5.35;4.85;;;;;;;9.27;100.00;99792.63;5074020;28;20128;-89
2022/11/04 06:49:10;;;;;;;5.82;4.45;;;;;;;9.36;100.00;99807.25;5059118;28;20471;-77
2022/11/04 06:51:36;;;;;;;4.40;4.10;;;;;;;9.44;100.00;99813.22;5075995;28;20040;-79
2022/11/04 06:54:03;;;;;;;4.40;4.10;;;;;;;9.49;100.00;99815.72;5071511;28;20056;-83
2022/11/04 06:56:30;;;;;;;4.15;3.85;;;;;;;9.51;100.00;99796.53;5071210;28;20517;-79
2022/11/04 06:59:00;;;;;;;6.18;4.45;;;;;;;9.55;99.38;99792.13;5077908;28;20486;-78
2022/11/04 07:01:30;;;;;;;4.32;3.53;;;;;;;9.58;98.91;99786.81;5061881;28;20455;-76
2022/11/04 07:03:59;;;;;;;4.72;4.32;;;;;;;9.60;98.44;99782.44;5070742;28;20483;-76
2022/11/04 07:06:28;;;;;;;5.13;4.63;;;;;;;9.62;98.07;99778.06;5067930;28;20036;-76
2022/11/04 07:08:59;;;;;;;4.57;4.18;;;;;;;9.65;96.54;99780.59;5065708;28;20075;-85
2022/11/04 07:11:31;;;;;;;6.15;4.30;;;;;;;9.66;95.63;99784.94;5064320;28;20511;-77
2022/11/04 07:13:58;;;;;;;4.28;3.80;;;;;;;9.66;94.41;99792.78;5067672;28;20076;-78
2022/11/04 07:16:25;;;;;;;4.30;3.67;;;;;;;9.63;94.67;99800.66;5060976;28;20052;-77
2022/11/04 07:18:53;;;;;;;5.40;4.95;;;;;;;9.66;93.79;99800.63;5066005;28;20089;-77
2022/11/04 07:21:19;;;;;;;5.70;3.92;;;;;;;9.63;93.96;99794.59;5065888;28;20036;-80
2022/11/04 07:23:46;;;;;;;3.70;3.40;;;;;;;9.58;94.30;99803.38;5061345;28;20063;-84
2022/11/04 07:26:12;;;;;;;3.90;3.60;;;;;;;9.62;93.51;99805.91;5066737;28;20140;-77
2022/11/04 07:28:39;;;;;;;4.00;3.80;;;;;;;9.67;92.80;99812.78;5071881;28;20032;-76
2022/11/04 07:31:11;;;;;;;4.20;3.80;;;;;;;9.71;92.12;99806.63;5066561;28;20642;-80
2022/11/04 07:33:38;;;;;;;4.43;4.10;;;;;;;9.73;92.26;99804.81;5058371;28;20163;-81
2022/11/04 07:36:07;;;;;;;5.50;4.20;;;;;;;9.77;91.15;99811.72;5064879;28;20119;-81
2022/11/04 07:38:34;;;;;;;4.15;2.88;;;;;;;9.84;90.75;99816.81;5053227;28;20051;-80
2022/11/04 07:41:01;;;;;;;4.38;3.15;;;;;;;9.90;90.78;99820.19;5063875;28;20120;-76
2022/11/04 07:43:28;;;;;;;4.63;3.70;;;;;;;9.95;90.41;99822.72;5071409;28;20052;-78
2022/11/04 07:46:11;;;;;;;4.18;3.47;;;;;;;9.96;89.65;99828.78;5061539;28;20037;-76
2022/11/04 07:48:38;;;;;;;3.40;2.95;;;;;;;9.93;89.12;99825.38;5082761;28;20546;-80
2022/11/04 07:51:08;;;;;;;6.60;3.15;;;;;;;9.96;89.37;99832.28;5053942;28;20514;-79
2022/11/04 07:53:35;;;;;;;7.15;3.05;;;;;;;10.00;89.55;99833.06;5074630;28;20143;-80
2022/11/04 07:56:07;;;;;;;16.35;3.63;;;;;;;10.03;89.66;99838.25;5066518;28;20040;-76
2022/11/04 07:58:34;;;;;;;5.43;3.25;;;;;;;10.07;89.20;99835.53;5066427;28;20116;-76
2022/11/04 08:01:04;;;;;;;4.20;2.58;;;;;;;10.10;87.89;99845.94;5065733;28;20032;-78
2022/11/04 08:03:31;;;;;;;2.88;2.67;;;;;;;10.12;87.23;99851.13;5060173;28;20102;-77
2022/11/04 08:06:00;;;;;;;2.90;2.70;;;;;;;10.13;86.74;99844.16;5027905;28;20447;-79
2022/11/04 08:08:28;;;;;;;4.18;2.90;;;;;;;10.14;86.53;99846.72;5065945;28;20045;-79
2022/11/04 08:11:01;;;;;;;3.78;2.83;;;;;;;10.13;86.02;99852.00;5062806;28;20037;-77
2022/11/04 08:13:30;;;;;;;7.77;3.10;;;;;;;10.14;86.25;99859.78;5062996;28;20109;-76
2022/11/04 08:16:02;;;;;;;3.58;3.20;;;;;;;10.15;86.57;99872.00;5061258;28;20085;-77
2022/11/04 08:18:28;;;;;;;4.25;3.30;;;;;;;10.17;86.08;99864.09;5080432;28;20056;-81
2022/11/04 08:20:55;;;;;;;4.93;2.83;;;;;;;10.18;86.70;99873.69;5060265;28;20471;-78
2022/11/04 08:23:22;;;;;;;5.15;3.75;;;;;;;10.18;86.56;99881.53;5060724;28;20159;-76
2022/11/04 08:25:48;;;;;;;3.63;3.28;;;;;;;10.23;86.49;99887.53;5058370;28;20053;-77
2022/11/04 08:28:17;;;;;;;6.70;3.75;;;;;;;10.29;85.56;99883.97;5072983;28;20040;-76
2022/11/04 08:31:03;;;;;;;6.90;3.38;;;;;;;10.27;85.68;99877.00;5070651;28;20552;-77
2022/11/04 08:33:32;;;;;;;6.75;3.53;;;;;;;10.23;85.78;99882.31;5071986;28;20043;-75
2022/11/04 08:36:04;;;;;;;3.25;2.63;;;;;;;10.23;85.71;99879.69;5071651;28;20070;-77
2022/11/04 08:38:30;;;;;;;4.85;3.00;;;;;;;10.26;86.38;99887.50;5079575;28;20046;-75
2022/11/04 08:41:02;;;;;;;8.68;3.10;;;;;;;10.22;86.01;99889.31;5067190;28;20051;-76
2022/11/04 08:43:29;;;;;;;5.63;3.38;;;;;;;10.21;86.66;99890.19;5085701;28;20440;-76
2022/11/04 08:45:56;;;;;;;4.55;4.15;;;;;;;10.27;86.65;99886.56;5073378;28;20162;-76
2022/11/04 08:48:23;;;;;;;4.28;3.10;;;;;;;10.26;86.09;99882.25;5073792;28;20104;-77
2022/11/04 08:50:55;;;;;;;3.70;3.42;;;;;;;10.25;86.69;99886.63;5073661;28;20039;-76
2022/11/04 08:53:22;;;;;;;8.43;3.80;;;;;;;10.28;86.38;99880.47;5066394;28;20970;-75
2022/11/04 08:55:49;;;;;;;5.93;3.33;;;;;;;10.35;86.21;99876.88;5071607;28;20064;-75
2022/11/04 08:58:16;;;;;;;6.85;3.58;;;;;;;10.36;86.07;99877.72;5088855;28;20052;-77
2022/11/04 09:00:42;;;;;;;7.72;3.97;;;;;;;10.47;86.32;99885.34;5060516;28;20130;-77
2022/11/04 09:03:09;;;;;;;4.40;3.35;;;;;;;10.51;85.51;99887.88;5072883;28;20048;-85
2022/11/04 09:05:43;;;;;;;5.25;4.07;;;;;;;10.54;84.92;99890.41;5098038;28;20471;-76
2022/11/04 09:08:15;;;;;;;5.85;3.15;;;;;;;10.51;84.63;99892.25;5095807;28;20474;-75
2022/11/04 09:10:47;;;;;;;4.70;3.20;;;;;;;10.39;86.02;99883.75;5064786;28;20048;-76
2022/11/04 09:13:16;;;;;;;4.60;3.45;;;;;;;10.34;86.47;99889.94;5085024;28;20047;-76
2022/11/04 09:15:43;;;;;;;3.70;3.15;;;;;;;10.27;86.85;99889.19;5072557;28;20440;-85
2022/11/04 09:18:10;;;;;;;3.47;3.10;;;;;;;10.23;86.89;99891.03;5073145;28;20724;-76
2022/11/04 09:20:38;;;;;;;7.10;3.35;;;;;;;10.22;86.82;99897.16;5073205;28;20059;-79
2022/11/04 09:23:06;;;;;;;4.05;2.80;;;;;;;10.24;86.46;99895.34;5073824;28;20067;-83
2022/11/04 09:25:33;;;;;;;5.05;3.30;;;;;;;10.33;86.05;99903.91;5068634;28;20061;-77
2022/11/04 09:28:00;;;;;;;3.85;3.53;;;;;;;10.43;84.69;99906.34;5067447;28;20044;-81
2022/11/04 09:30:27;;;;;;;5.57;3.47;;;;;;;10.51;83.88;99895.72;5051282;28;20044;-84
2022/11/04 09:32:54;;;;;;;6.07;3.28;;;;;;;10.52;83.72;99913.16;5060987;28;20044;-84
2022/11/04 09:35:20;;;;;;;7.38;3.70;;;;;;;10.53;83.78;99907.03;5052698;28;20493;-77
2022/11/04 09:37:47;;;;;;;4.00;2.92;;;;;;;10.53;83.31;99904.41;5064309;28;20052;-76
2022/11/04 09:40:18;;;;;;;6.50;3.30;;;;;;;10.52;83.89;99907.03;5068754;28;20684;-77
2022/11/04 09:43:31;;;;;;;4.18;3.50;;;;;;;10.58;83.78;99904.31;5071001;28;20040;-77
2022/11/04 09:45:59;;;;;;;3.38;2.75;;;;;;;10.65;83.00;99903.28;5059814;28;20040;-84
2022/11/04 09:48:37;;;;;;;4.30;3.05;;;;;;;10.57;83.25;99898.22;5063051;28;20048;-82
2022/11/04 09:51:06;;;;;;;3.38;2.75;;;;;;;10.55;83.80;99905.22;5065338;28;20386;-79
2022/11/04 09:53:42;;;;;;;3.55;3.17;;;;;;;10.57;84.05;99908.69;5059848;28;20052;-79
2022/11/04 09:56:21;;;;;;;3.17;2.80;;;;;;;10.63;83.55;99904.22;5081854;28;20052;-77
2022/11/04 09:58:49;;;;;;;3.33;3.00;;;;;;;10.61;83.71;99901.59;5068073;28;20403;-77
2022/11/04 10:01:19;;;;;;;2.78;2.60;;;;;;;10.65;84.31;99899.78;5047101;28;20074;-78
2022/11/04 10:04:20;;;;;;;3.25;2.80;;;;;;;10.80;84.28;99893.38;5078892;28;20052;-86
2022/11/04 10:07:38;;;;;;;3.60;2.67;;;;;;;10.97;82.10;99887.75;5047356;28;20066;-78
2022/11/04 10:10:35;;;;;;;4.38;3.13;;;;;;;10.99;81.53;99883.34;5088088;28;20050;-84
2022/11/04 10:13:16;;;;;;;10.32;4.13;;;;;;;11.06;81.87;99891.00;5055911;28;20051;-76
2022/11/04 10:15:53;;;;;;;5.57;3.28;;;;;;;11.14;80.34;99890.00;5081780;28;20091;-78
2022/11/04 10:19:16;;;;;;;5.40;2.83;;;;;;;11.11;80.01;99900.50;5083399;28;20080;-76
2022/11/04 10:22:00;;;;;;;4.32;2.47;;;;;;;11.13;79.75;99896.13;5091886;28;20036;-80
2022/11/04 10:24:54;;;;;;;3.60;2.33;;;;;;;11.15;79.27;99897.81;5086943;28;20044;-83
2022/11/04 10:27:26;;;;;;;7.20;2.50;;;;;;;11.19;78.52;99907.31;5082648;28;20207;-79
2022/11/04 10:30:00;;;;;;;4.97;3.28;;;;;;;11.13;78.32;99903.97;5075686;28;20430;-78
2022/11/04 10:32:36;;;;;;;6.20;2.67;;;;;;;11.09;78.53;99906.69;5087701;28;20032;-83
2022/11/04 10:35:24;;;;;;;4.75;3.05;;;;;;;11.05;78.82;99919.88;5086263;28;20694;-78
2022/11/04 10:37:53;;;;;;;4.13;3.30;;;;;;;11.18;78.61;99937.00;5067912;28;20139;-82
2022/11/04 10:40:37;;;;;;;5.85;2.65;;;;;;;11.44;77.50;99927.69;5066861;28;20090;-78
2022/11/04 10:43:10;;;;;;;6.35;2.97;;;;;;;11.58;76.44;99932.59;5067986;28;20490;-79
2022/11/04 10:45:54;;;;;;;5.43;2.78;;;;;;;11.64;76.29;99937.69;5067024;28;20052;-77
2022/11/04 10:48:31;;;;;;;2.95;2.75;;;;;;;11.58;76.08;99928.22;5053187;28;20051;-77
2022/11/04 10:50:59;;;;;;;8.20;3.10;;;;;;;11.53;75.65;99937.09;5050026;28;20059;-83
2022/11/04 10:53:29;;;;;;;5.78;2.17;;;;;;;11.53;76.21;99939.72;5068153;28;20076;-76
2022/11/04 10:56:34;;;;;;;3.88;2.38;;;;;;;11.54;76.06;99942.28;5059636;28;20437;-78
2022/11/04 10:59:39;;;;;;;3.72;2.50;;;;;;;11.74;75.59;99956.66;5071712;28;20135;-77
2022/11/04 11:02:05;;;;;;;6.53;2.50;;;;;;;11.88;75.19;99957.19;5070251;28;20501;-78
2022/11/04 11:04:37;;;;;;;3.00;2.00;;;;;;;11.95;74.96;99954.41;5083532;28;20517;-79
2022/11/04 11:07:10;;;;;;;2.40;2.10;;;;;;;11.92;74.23;99956.19;5060972;28;20076;-77
2022/11/04 11:09:52;;;;;;;2.03;1.92;;;;;;;11.89;73.73;99953.66;5076993;28;20442;-77
2022/11/04 11:12:29;;;;;;;6.30;2.50;;;;;;;11.92;74.30;99948.31;5070686;28;20059;-77
2022/11/04 11:14:57;;;;;;;3.72;2.35;;;;;;;12.03;73.91;99940.22;5075698;28;20063;-77
2022/11/04 11:17:36;;;;;;;8.38;1.90;;;;;;;12.04;72.98;99944.56;5070981;28;20051;-79
2022/11/04 11:20:15;;;;;;;5.47;2.58;;;;;;;12.00;73.47;99939.44;5056890;28;20419;-77
2022/11/04 11:22:45;;;;;;;2.58;1.75;;;;;;;11.94;73.70;99929.91;5086870;28;20057;-78
2022/11/04 11:25:49;;;;;;;4.28;2.35;;;;;;;11.94;74.13;99934.31;5058957;28;20159;-77
2022/11/04 11:28:25;;;;;;;4.72;3.17;;;;;;;12.03;73.43;99932.38;5060721;28;20066;-77
2022/11/04 11:30:51;;;;;;;4.28;3.40;;;;;;;12.00;73.90;99934.19;5061563;28;20141;-76
2022/11/04 11:33:26;;;;;;;7.25;3.15;;;;;;;12.14;72.74;99928.59;5063371;28;20119;-76
2022/11/04 11:36:03;;;;;;;7.10;4.32;;;;;;;12.08;73.34;99929.59;5080983;28;20098;-82
2022/11/04 11:38:33;;;;;;;3.20;2.13;;;;;;;11.96;72.83;99924.69;5056206;28;20383;-77
2022/11/04 11:41:17;;;;;;;3.95;2.53;;;;;;;11.96;72.72;99936.03;5060149;28;20040;-82
2022/11/04 11:43:50;;;;;;;3.33;2.22;;;;;;;11.97;72.23;99937.75;5056629;28;20135;-75
2022/11/04 11:46:26;;;;;;;1.98;1.80;;;;;;;11.95;72.50;99943.91;5060073;28;20554;-78
2022/11/04 11:48:59;;;;;;;5.32;2.33;;;;;;;11.91;72.40;99944.00;5060190;28;20647;-81
2022/11/04 11:51:48;;;;;;;2.97;2.13;;;;;;;12.03;71.72;99957.72;5061651;28;20317;-77
2022/11/04 11:54:22;;;;;;;4.50;1.73;;;;;;;12.16;71.06;99950.38;5063158;28;20052;-78
2022/11/04 11:56:58;;;;;;;2.42;2.00;;;;;;;12.05;71.61;99951.53;5059155;28;20055;-79
2022/11/04 11:59:53;;;;;;;2.42;2.13;;;;;;;12.02;71.76;99950.75;5061668;28;20052;-83
2022/11/04 12:02:47;;;;;;;3.15;1.85;;;;;;;12.00;72.04;99948.16;5067701;28;20512;-76
2022/11/04 12:05:17;;;;;;;;;;;;;;;11.96;72.18;99951.78;5059831;28;20497;-78
2022/11/04 12:07:58;;;;;;;2.65;2.08;;;;;;;12.09;71.95;99960.19;5061191;28;19947;-78
2022/11/04 12:10:38;;;;;;;3.55;2.25;;;;;;;12.20;71.41;99959.88;5065760;28;20049;-77
2022/11/04 12:13:18;;;;;;;5.57;2.10;;;;;;;12.28;71.24;99959.69;5073728;28;20245;-77
2022/11/04 12:16:03;;;;;;;2.50;2.20;;;;;;;12.26;72.05;99956.25;5059830;28;20048;-76
2022/11/04 12:19:01;;;;;;;4.22;2.25;;;;;;;12.20;71.41;99952.91;5058688;28;20125;-76
2022/11/04 12:21:33;;;;;;;4.65;2.30;;;;;;;12.27;71.58;99958.84;5057702;28;20138;-76
2022/11/04 12:25:20;;;;;;;2.23;2.00;;;;;;;12.36;70.95;99950.72;5061457;28;20831;-78
2022/11/04 12:28:01;;;;;;;3.65;2.67;;;;;;;12.38;70.88;99950.66;5021557;28;20130;-77
2022/11/04 12:30:35;;;;;;;2.20;2.05;;;;;;;12.35;71.38;99956.00;5026129;28;20060;-78
2022/11/04 12:33:37;;;;;;;2.28;2.13;;;;;;;12.29;71.34;99956.16;5059437;28;20066;-76